createdAt,value
2016-09-18T00:00:09.406Z,0
2016-09-18T00:01:08.810Z,0
2016-09-18T00:02:09.151Z,0
2016-09-18T00:03:09.778Z,0
2016-09-18T00:04:09.791Z,0
2016-09-18T00:05:09.510Z,0
2016-09-18T00:06:09.861Z,0
2016-09-18T00:07:09.863Z,0
2016-09-18T00:08:09.561Z,0
2016-09-18T00:09:09.912Z,0
2016-09-18T00:10:09.747Z,0
2016-09-18T00:11:09.346Z,0
2016-09-18T00:12:10.029Z,0
2016-09-18T00:13:09.382Z,0
2016-09-18T00:14:09.122Z,0
2016-09-18T00:15:09.720Z,0
2016-09-18T00:16:09.804Z,0
2016-09-18T00:17:09.770Z,0
2016-09-18T00:18:10.102Z,0
2016-09-18T00:19:10.134Z,0
2016-09-18T00:20:10.139Z,0
2016-09-18T00:21:10.253Z,0
2016-09-18T00:22:09.851Z,0
2016-09-18T00:23:09.583Z,0
2016-09-18T00:24:09.601Z,0
2016-09-18T00:25:10.253Z,0
2016-09-18T00:26:09.982Z,0
2016-09-18T00:27:10.002Z,0
2016-09-18T00:28:09.682Z,0
2016-09-18T00:29:09.701Z,0
2016-09-18T00:30:10.061Z,0
2016-09-18T00:31:09.757Z,0
2016-09-18T00:32:10.129Z,0
2016-09-18T00:33:10.100Z,0
2016-09-18T00:34:10.239Z,0
2016-09-18T00:35:09.522Z,0
2016-09-18T00:36:10.177Z,0
2016-09-18T00:37:09.888Z,0
2016-09-18T00:38:10.207Z,0
2016-09-18T00:39:10.223Z,0
2016-09-18T00:40:10.259Z,0
2016-09-18T00:41:10.283Z,0
2016-09-18T00:42:10.621Z,0
2016-09-18T00:43:10.635Z,0
2016-09-18T00:44:10.642Z,0
2016-09-18T00:45:10.063Z,0
2016-09-18T00:46:10.710Z,0
2016-09-18T00:47:10.504Z,0
2016-09-18T00:48:10.754Z,0
2016-09-18T00:49:10.766Z,0
2016-09-18T00:50:10.764Z,0
2016-09-18T00:51:10.803Z,0
2016-09-18T00:52:10.509Z,0
2016-09-18T00:53:09.915Z,0
2016-09-18T00:54:10.553Z,0
2016-09-18T00:55:10.654Z,0
2016-09-18T00:56:10.902Z,0
2016-09-18T00:57:10.933Z,0
2016-09-18T00:58:10.731Z,0
2016-09-18T00:59:10.734Z,0
2016-09-18T01:00:11.046Z,0
2016-09-18T01:01:10.731Z,0
2016-09-18T01:02:10.728Z,0
2016-09-18T01:03:10.441Z,0
2016-09-18T01:04:10.812Z,0
2016-09-18T01:05:10.806Z,0
2016-09-18T01:06:10.913Z,0
2016-09-18T01:07:10.525Z,0
2016-09-18T01:08:11.162Z,0
2016-09-18T01:09:10.884Z,0
2016-09-18T01:10:10.963Z,0
2016-09-18T01:11:11.030Z,0
2016-09-18T01:12:10.923Z,0
2016-09-18T01:13:11.041Z,0
2016-09-18T01:14:10.652Z,0
2016-09-18T01:15:11.002Z,0
2016-09-18T01:16:11.332Z,0
2016-09-18T01:17:11.338Z,0
2016-09-18T01:18:11.074Z,0
2016-09-18T01:19:11.412Z,0
2016-09-18T01:20:11.408Z,0
2016-09-18T01:21:11.427Z,0
2016-09-18T01:22:11.443Z,0
2016-09-18T01:23:11.492Z,0
2016-09-18T01:24:11.176Z,0
2016-09-18T01:25:11.536Z,0
2016-09-18T01:26:10.970Z,0
2016-09-18T01:27:11.238Z,0
2016-09-18T01:28:11.292Z,0
2016-09-18T01:29:11.614Z,0
2016-09-18T01:30:11.299Z,0
2016-09-18T01:31:11.632Z,0
2016-09-18T01:32:11.654Z,0
2016-09-18T01:33:11.672Z,0
2016-09-18T01:34:11.374Z,0
2016-09-18T01:35:11.115Z,0
2016-09-18T01:36:11.760Z,0
2016-09-18T01:37:11.536Z,0
2016-09-18T01:38:11.473Z,0
2016-09-18T01:39:10.881Z,0
2016-09-18T01:40:11.198Z,0
2016-09-18T01:41:11.846Z,0
2016-09-18T01:42:11.250Z,0
2016-09-18T01:43:11.257Z,0
2016-09-18T01:44:11.586Z,0
2016-09-18T01:45:11.313Z,0
2016-09-18T01:46:11.960Z,0
2016-09-18T01:47:11.359Z,0
2016-09-18T01:48:11.482Z,0
2016-09-18T01:49:12.019Z,0
2016-09-18T01:50:11.724Z,0
2016-09-18T01:51:12.043Z,0
2016-09-18T01:52:12.137Z,0
2016-09-18T01:53:12.102Z,0
2016-09-18T01:54:11.502Z,0
2016-09-18T01:55:11.523Z,0
2016-09-18T01:56:11.865Z,0
2016-09-18T01:57:12.182Z,0
2016-09-18T01:58:11.271Z,0
2016-09-18T01:59:11.594Z,0
2016-09-18T02:00:11.934Z,0
2016-09-18T02:01:12.285Z,0
2016-09-18T02:02:11.959Z,0
2016-09-18T02:03:12.302Z,0
2016-09-18T02:04:12.340Z,0
2016-09-18T02:05:12.010Z,0
2016-09-18T02:06:11.443Z,0
2016-09-18T02:07:12.382Z,0
2016-09-18T02:08:12.094Z,0
2016-09-18T02:09:12.418Z,0
2016-09-18T02:10:12.433Z,0
2016-09-18T02:11:12.459Z,0
2016-09-18T02:12:12.253Z,0
2016-09-18T02:13:12.498Z,0
2016-09-18T02:14:12.214Z,0
2016-09-18T02:15:12.554Z,0
2016-09-18T02:16:12.704Z,0
2016-09-18T02:17:12.272Z,0
2016-09-18T02:18:12.012Z,0
2016-09-18T02:19:11.991Z,0
2016-09-18T02:20:12.644Z,0
2016-09-18T02:21:11.741Z,0
2016-09-18T02:22:12.705Z,0
2016-09-18T02:23:11.791Z,0
2016-09-18T02:24:12.103Z,0
2016-09-18T02:25:12.132Z,0
2016-09-18T02:26:12.822Z,0
2016-09-18T02:27:12.490Z,0
2016-09-18T02:28:12.830Z,0
2016-09-18T02:29:12.520Z,0
2016-09-18T02:30:12.533Z,0
2016-09-18T02:31:12.885Z,0
2016-09-18T02:32:12.902Z,0
2016-09-18T02:33:12.651Z,0
2016-09-18T02:34:12.936Z,0
2016-09-18T02:35:12.979Z,0
2016-09-18T02:36:12.374Z,0
2016-09-18T02:37:12.694Z,0
2016-09-18T02:38:12.703Z,0
2016-09-18T02:39:13.064Z,0
2016-09-18T02:40:12.744Z,0
2016-09-18T02:41:12.476Z,0
2016-09-18T02:42:12.485Z,0
2016-09-18T02:43:12.832Z,0
2016-09-18T02:44:12.964Z,0
2016-09-18T02:45:12.554Z,0
2016-09-18T02:46:12.619Z,0
2016-09-18T02:47:12.323Z,0
2016-09-18T02:48:12.909Z,0
2016-09-18T02:49:12.934Z,0
2016-09-18T02:50:13.343Z,0
2016-09-18T02:51:12.992Z,0
2016-09-18T02:52:12.993Z,0
2016-09-18T02:53:12.382Z,0
2016-09-18T02:54:13.038Z,0
2016-09-18T02:55:13.061Z,0
2016-09-18T02:56:13.390Z,0
2016-09-18T02:57:13.414Z,0
2016-09-18T02:58:13.112Z,0
2016-09-18T02:59:13.254Z,0
2016-09-18T03:00:13.157Z,0
2016-09-18T03:01:13.184Z,0
2016-09-18T03:02:12.604Z,0
2016-09-18T03:03:13.299Z,0
2016-09-18T03:04:12.994Z,0
2016-09-18T03:05:13.630Z,0
2016-09-18T03:06:13.280Z,0
2016-09-18T03:07:13.314Z,0
2016-09-18T03:08:13.633Z,0
2016-09-18T03:09:13.656Z,0
2016-09-18T03:10:13.062Z,0
2016-09-18T03:11:13.077Z,0
2016-09-18T03:12:13.397Z,0
2016-09-18T03:13:13.425Z,0
2016-09-18T03:14:13.147Z,0
2016-09-18T03:15:13.174Z,0
2016-09-18T03:16:13.491Z,0
2016-09-18T03:17:13.560Z,0
2016-09-18T03:18:13.531Z,0
2016-09-18T03:19:13.856Z,0
2016-09-18T03:20:13.864Z,0
2016-09-18T03:21:13.283Z,0
2016-09-18T03:22:13.292Z,0
2016-09-18T03:23:13.325Z,0
2016-09-18T03:24:13.663Z,0
2016-09-18T03:25:13.366Z,0
2016-09-18T03:26:14.123Z,0
2016-09-18T03:27:13.719Z,0
2016-09-18T03:28:14.047Z,0
2016-09-18T03:29:13.742Z,0
2016-09-18T03:30:14.091Z,0
2016-09-18T03:31:14.111Z,0
2016-09-18T03:32:14.124Z,0
2016-09-18T03:33:13.839Z,0
2016-09-18T03:34:13.850Z,0
2016-09-18T03:35:13.901Z,0
2016-09-18T03:36:14.210Z,0
2016-09-18T03:37:13.954Z,0
2016-09-18T03:38:14.245Z,0
2016-09-18T03:39:13.948Z,0
2016-09-18T03:40:14.313Z,0
2016-09-18T03:41:13.687Z,0
2016-09-18T03:42:14.371Z,0
2016-09-18T03:43:14.042Z,0
2016-09-18T03:44:14.071Z,0
2016-09-18T03:45:13.468Z,0
2016-09-18T03:46:14.092Z,0
2016-09-18T03:47:13.818Z,0
2016-09-18T03:48:14.238Z,0
2016-09-18T03:49:14.477Z,0
2016-09-18T03:50:14.619Z,0
2016-09-18T03:51:13.917Z,0
2016-09-18T03:52:14.232Z,0
2016-09-18T03:53:13.646Z,0
2016-09-18T03:54:14.260Z,0
2016-09-18T03:55:13.968Z,0
2016-09-18T03:56:14.622Z,0
2016-09-18T03:57:14.619Z,0
2016-09-18T03:58:14.368Z,0
2016-09-18T03:59:14.682Z,0
2016-09-18T04:00:14.374Z,0
2016-09-18T04:01:14.074Z,0
2016-09-18T04:02:14.522Z,0
2016-09-18T04:03:14.637Z,0
2016-09-18T04:04:14.836Z,0
2016-09-18T04:05:14.512Z,0
2016-09-18T04:06:14.506Z,0
2016-09-18T04:07:14.214Z,0
2016-09-18T04:08:14.244Z,0
2016-09-18T04:09:14.565Z,0
2016-09-18T04:10:14.892Z,0
2016-09-18T04:11:14.943Z,0
2016-09-18T04:12:14.625Z,0
2016-09-18T04:13:14.644Z,0
2016-09-18T04:14:14.675Z,0
2016-09-18T04:15:14.820Z,0
2016-09-18T04:16:14.821Z,0
2016-09-18T04:17:14.424Z,0
2016-09-18T04:18:15.220Z,0
2016-09-18T04:19:14.460Z,0
2016-09-18T04:20:14.783Z,0
2016-09-18T04:21:15.123Z,0
2016-09-18T04:22:14.203Z,0
2016-09-18T04:23:15.191Z,0
2016-09-18T04:24:14.643Z,0
2016-09-18T04:25:14.899Z,0
2016-09-18T04:26:14.606Z,4
2016-09-18T04:27:15.478Z,0
2016-09-18T04:28:14.636Z,0
2016-09-18T04:29:14.968Z,4
2016-09-18T04:30:14.689Z,0
2016-09-18T04:31:15.332Z,4
2016-09-18T04:32:15.074Z,4
2016-09-18T04:33:15.073Z,8
2016-09-18T04:34:14.774Z,8
2016-09-18T04:35:15.104Z,4
2016-09-18T04:36:15.212Z,8
2016-09-18T04:37:15.211Z,8
2016-09-18T04:38:14.841Z,12
2016-09-18T04:39:15.223Z,16
2016-09-18T04:40:15.014Z,16
2016-09-18T04:41:15.222Z,20
2016-09-18T04:42:14.923Z,24
2016-09-18T04:43:15.617Z,28
2016-09-18T04:44:15.392Z,36
2016-09-18T04:45:14.780Z,40
2016-09-18T04:46:15.832Z,44
2016-09-18T04:47:15.342Z,52
2016-09-18T04:48:15.052Z,60
2016-09-18T04:49:15.374Z,68
2016-09-18T04:50:15.399Z,80
2016-09-18T04:51:15.735Z,92
2016-09-18T04:52:15.752Z,104
2016-09-18T04:53:15.883Z,116
2016-09-18T04:54:15.475Z,136
2016-09-18T04:55:15.814Z,148
2016-09-18T04:56:15.203Z,164
2016-09-18T04:57:15.226Z,188
2016-09-18T04:58:15.858Z,208
2016-09-18T04:59:15.569Z,228
2016-09-18T05:00:15.384Z,252
2016-09-18T05:01:15.604Z,276
2016-09-18T05:02:15.955Z,300
2016-09-18T05:03:15.665Z,328
2016-09-18T05:04:15.352Z,360
2016-09-18T05:05:15.395Z,392
2016-09-18T05:06:16.143Z,424
2016-09-18T05:07:15.445Z,460
2016-09-18T05:08:16.155Z,500
2016-09-18T05:09:15.784Z,536
2016-09-18T05:10:16.117Z,584
2016-09-18T05:11:16.136Z,636
2016-09-18T05:12:16.146Z,688
2016-09-18T05:13:15.536Z,752
2016-09-18T05:14:15.875Z,812
2016-09-18T05:15:15.909Z,868
2016-09-18T05:16:15.925Z,920
2016-09-18T05:17:16.267Z,972
2016-09-18T05:18:16.271Z,1016
2016-09-18T05:19:15.983Z,1068
2016-09-18T05:20:15.685Z,1116
2016-09-18T05:21:16.024Z,1176
2016-09-18T05:22:16.060Z,1232
2016-09-18T05:23:15.756Z,1288
2016-09-18T05:24:16.076Z,1344
2016-09-18T05:25:16.095Z,1396
2016-09-18T05:26:15.804Z,1456
2016-09-18T05:27:16.468Z,1516
2016-09-18T05:28:15.866Z,1576
2016-09-18T05:29:16.195Z,1636
2016-09-18T05:30:15.918Z,1692
2016-09-18T05:31:16.628Z,1752
2016-09-18T05:32:15.936Z,1808
2016-09-18T05:33:16.571Z,1868
2016-09-18T05:34:16.285Z,1924
2016-09-18T05:35:16.302Z,1976
2016-09-18T05:36:16.326Z,2028
2016-09-18T05:37:16.652Z,2080
2016-09-18T05:38:16.424Z,2128
2016-09-18T05:39:16.687Z,2180
2016-09-18T05:40:16.395Z,2232
2016-09-18T05:41:16.420Z,2284
2016-09-18T05:42:16.783Z,2344
2016-09-18T05:43:16.475Z,2404
2016-09-18T05:44:16.183Z,2460
2016-09-18T05:45:16.841Z,2512
2016-09-18T05:46:16.534Z,2568
2016-09-18T05:47:16.344Z,2628
2016-09-18T05:48:16.595Z,2692
2016-09-18T05:49:16.905Z,2756
2016-09-18T05:50:16.916Z,2848
2016-09-18T05:51:16.933Z,3052
2016-09-18T05:52:17.306Z,3424
2016-09-18T05:53:17.608Z,3880
2016-09-18T05:54:17.481Z,4280
2016-09-18T05:55:16.900Z,4900
2016-09-18T05:56:16.608Z,5992
2016-09-18T05:57:16.974Z,6876
2016-09-18T05:58:16.929Z,7092
2016-09-18T05:59:17.275Z,7280
2016-09-18T06:00:17.110Z,7516
2016-09-18T06:01:17.178Z,7636
2016-09-18T06:02:17.253Z,7820
2016-09-18T06:03:17.084Z,8088
2016-09-18T06:04:16.682Z,8504
2016-09-18T06:05:16.965Z,9108
2016-09-18T06:06:16.684Z,9424
2016-09-18T06:07:17.101Z,9328
2016-09-18T06:08:17.317Z,9276
2016-09-18T06:09:17.488Z,9284
2016-09-18T06:10:17.044Z,9356
2016-09-18T06:11:16.785Z,9932
2016-09-18T06:12:17.067Z,10552
2016-09-18T06:13:17.105Z,10288
2016-09-18T06:14:17.133Z,9948
2016-09-18T06:15:16.911Z,10336
2016-09-18T06:16:17.175Z,11256
2016-09-18T06:17:17.205Z,11696
2016-09-18T06:18:17.252Z,11976
2016-09-18T06:19:17.242Z,12148
2016-09-18T06:20:17.640Z,11760
2016-09-18T06:21:16.991Z,11712
2016-09-18T06:22:17.317Z,12028
2016-09-18T06:23:17.716Z,11716
2016-09-18T06:24:17.650Z,11492
2016-09-18T06:25:17.695Z,11812
2016-09-18T06:26:17.108Z,11984
2016-09-18T06:27:17.454Z,11776
2016-09-18T06:28:17.164Z,12024
2016-09-18T06:29:17.613Z,12628
2016-09-18T06:30:17.828Z,13920
2016-09-18T06:31:17.533Z,14592
2016-09-18T06:32:17.874Z,15936
2016-09-18T06:33:17.702Z,15232
2016-09-18T06:34:17.625Z,13076
2016-09-18T06:35:17.655Z,12852
2016-09-18T06:36:17.701Z,12900
2016-09-18T06:37:17.406Z,13088
2016-09-18T06:38:18.035Z,13696
2016-09-18T06:39:17.751Z,14528
2016-09-18T06:40:18.091Z,15008
2016-09-18T06:41:18.213Z,15520
2016-09-18T06:42:17.943Z,16576
2016-09-18T06:43:17.864Z,18528
2016-09-18T06:44:18.258Z,21120
2016-09-18T06:45:18.225Z,24064
2016-09-18T06:46:18.274Z,27968
2016-09-18T06:47:17.663Z,30336
2016-09-18T06:48:18.029Z,30880
2016-09-18T06:49:18.043Z,30528
2016-09-18T06:50:18.063Z,30752
2016-09-18T06:51:18.057Z,30176
2016-09-18T06:52:18.433Z,28704
2016-09-18T06:53:18.151Z,29888
2016-09-18T06:54:18.168Z,31776
2016-09-18T06:55:18.501Z,31872
2016-09-18T06:56:17.902Z,30592
2016-09-18T06:57:18.264Z,29312
2016-09-18T06:58:18.588Z,29728
2016-09-18T06:59:18.299Z,28800
2016-09-18T07:00:18.390Z,29568
2016-09-18T07:01:18.332Z,30688
2016-09-18T07:02:17.772Z,29472
2016-09-18T07:03:18.767Z,28672
2016-09-18T07:04:18.483Z,28672
2016-09-18T07:05:18.461Z,28288
2016-09-18T07:06:18.799Z,29088
2016-09-18T07:07:18.524Z,29376
2016-09-18T07:08:18.903Z,28896
2016-09-18T07:09:18.884Z,28960
2016-09-18T07:10:18.900Z,29600
2016-09-18T07:11:19.075Z,30080
2016-09-18T07:12:19.024Z,30880
2016-09-18T07:13:18.695Z,32256
2016-09-18T07:14:18.728Z,32256
2016-09-18T07:15:19.048Z,31104
2016-09-18T07:16:19.079Z,29280
2016-09-18T07:17:18.810Z,30304
2016-09-18T07:18:19.136Z,31584
2016-09-18T07:19:19.162Z,31328
2016-09-18T07:20:19.194Z,31392
2016-09-18T07:21:19.353Z,32128
2016-09-18T07:22:19.273Z,33024
2016-09-18T07:23:19.295Z,33408
2016-09-18T07:24:19.103Z,33408
2016-09-18T07:25:19.032Z,33568
2016-09-18T07:26:18.767Z,33824
2016-09-18T07:27:18.789Z,32704
2016-09-18T07:28:19.409Z,32448
2016-09-18T07:29:19.476Z,32736
2016-09-18T07:30:19.193Z,33344
2016-09-18T07:31:19.204Z,27360
2016-09-18T07:32:18.603Z,12200
2016-09-18T07:33:19.546Z,5536
2016-09-18T07:34:19.270Z,4888
2016-09-18T07:35:19.617Z,4812
2016-09-18T07:36:19.323Z,4688
2016-09-18T07:37:19.690Z,4604
2016-09-18T07:38:19.732Z,4520
2016-09-18T07:39:19.416Z,4512
2016-09-18T07:40:19.112Z,4520
2016-09-18T07:41:19.764Z,4504
2016-09-18T07:42:19.485Z,4504
2016-09-18T07:43:19.524Z,4504
2016-09-18T07:44:19.674Z,4492
2016-09-18T07:45:19.893Z,4472
2016-09-18T07:46:19.583Z,4468
2016-09-18T07:47:19.645Z,4448
2016-09-18T07:48:19.644Z,4432
2016-09-18T07:49:19.965Z,4420
2016-09-18T07:50:19.991Z,4412
2016-09-18T07:51:20.032Z,4416
2016-09-18T07:52:19.100Z,4412
2016-09-18T07:53:20.074Z,4420
2016-09-18T07:54:20.094Z,4412
2016-09-18T07:55:20.110Z,4400
2016-09-18T07:56:20.182Z,4416
2016-09-18T07:57:19.526Z,4416
2016-09-18T07:58:19.876Z,4428
2016-09-18T07:59:19.919Z,4436
2016-09-18T08:00:20.242Z,4452
2016-09-18T08:01:20.279Z,4464
2016-09-18T08:02:19.946Z,4476
2016-09-18T08:03:20.012Z,4492
2016-09-18T08:04:20.335Z,4504
2016-09-18T08:05:20.506Z,4508
2016-09-18T08:06:20.064Z,4512
2016-09-18T08:07:20.415Z,4500
2016-09-18T08:08:20.664Z,4520
2016-09-18T08:09:20.726Z,4556
2016-09-18T08:10:19.833Z,4552
2016-09-18T08:11:20.696Z,4560
2016-09-18T08:12:20.217Z,4592
2016-09-18T08:13:20.338Z,4672
2016-09-18T08:14:19.929Z,4588
2016-09-18T08:15:20.371Z,4584
2016-09-18T08:16:20.671Z,4624
2016-09-18T08:17:20.347Z,4720
2016-09-18T08:18:20.344Z,4616
2016-09-18T08:19:20.692Z,4636
2016-09-18T08:20:20.404Z,4644
2016-09-18T08:21:20.416Z,4744
2016-09-18T08:22:20.866Z,4724
2016-09-18T08:23:20.688Z,4744
2016-09-18T08:24:20.477Z,4820
2016-09-18T08:25:20.820Z,4784
2016-09-18T08:26:20.933Z,4744
2016-09-18T08:27:21.064Z,4808
2016-09-18T08:28:20.917Z,4848
2016-09-18T08:29:20.746Z,5172
2016-09-18T08:30:20.835Z,4956
2016-09-18T08:31:20.796Z,4808
2016-09-18T08:32:21.024Z,5156
2016-09-18T08:33:21.013Z,5116
2016-09-18T08:34:21.065Z,6396
2016-09-18T08:35:20.443Z,6068
2016-09-18T08:36:20.485Z,5592
2016-09-18T08:37:21.099Z,6160
2016-09-18T08:38:21.131Z,5524
2016-09-18T08:39:21.274Z,5156
2016-09-18T08:40:21.187Z,4992
2016-09-18T08:41:21.210Z,5092
2016-09-18T08:42:20.956Z,5260
2016-09-18T08:43:20.979Z,5320
2016-09-18T08:44:21.325Z,5988
2016-09-18T08:45:21.283Z,9720
2016-09-18T08:46:21.013Z,6592
2016-09-18T08:47:21.023Z,5344
2016-09-18T08:48:21.051Z,5092
2016-09-18T08:49:21.075Z,5100
2016-09-18T08:50:21.395Z,4764
2016-09-18T08:51:21.456Z,5312
2016-09-18T08:52:21.505Z,6132
2016-09-18T08:53:21.555Z,5728
2016-09-18T08:54:21.593Z,7180
2016-09-18T08:55:21.523Z,6324
2016-09-18T08:56:21.239Z,5528
2016-09-18T08:57:21.565Z,5368
2016-09-18T08:58:21.290Z,5532
2016-09-18T08:59:21.607Z,5460
2016-09-18T09:00:21.630Z,5344
2016-09-18T09:01:21.657Z,5896
2016-09-18T09:02:21.383Z,6008
2016-09-18T09:03:21.697Z,6588
2016-09-18T09:04:21.790Z,6600
2016-09-18T09:05:21.835Z,6808
2016-09-18T09:06:21.864Z,7524
2016-09-18T09:07:21.506Z,7844
2016-09-18T09:08:21.824Z,7772
2016-09-18T09:09:21.855Z,5780
2016-09-18T09:10:21.580Z,5532
2016-09-18T09:11:21.595Z,5524
2016-09-18T09:12:21.929Z,5500
2016-09-18T09:13:21.642Z,5424
2016-09-18T09:14:21.664Z,5816
2016-09-18T09:15:21.994Z,6024
2016-09-18T09:16:21.725Z,5728
2016-09-18T09:17:22.043Z,5920
2016-09-18T09:18:21.451Z,6240
2016-09-18T09:19:21.477Z,6164
2016-09-18T09:20:21.807Z,6032
2016-09-18T09:21:21.896Z,5788
2016-09-18T09:22:22.167Z,5736
2016-09-18T09:23:22.204Z,5680
2016-09-18T09:24:21.925Z,5768
2016-09-18T09:25:22.048Z,5832
2016-09-18T09:26:21.653Z,5704
2016-09-18T09:27:22.373Z,5500
2016-09-18T09:28:22.013Z,5180
2016-09-18T09:29:22.333Z,5064
2016-09-18T09:30:22.366Z,5080
2016-09-18T09:31:22.407Z,5048
2016-09-18T09:32:22.401Z,5048
2016-09-18T09:33:22.417Z,5092
2016-09-18T09:34:22.463Z,5020
2016-09-18T09:35:22.473Z,5048
2016-09-18T09:36:22.209Z,5048
2016-09-18T09:37:22.219Z,5076
2016-09-18T09:38:22.234Z,5412
2016-09-18T09:39:22.617Z,5600
2016-09-18T09:40:22.300Z,6856
2016-09-18T09:41:22.316Z,8632
2016-09-18T09:42:22.344Z,8648
2016-09-18T09:43:22.567Z,7768
2016-09-18T09:44:22.691Z,6480
2016-09-18T09:45:22.736Z,6468
2016-09-18T09:46:22.435Z,5968
2016-09-18T09:47:22.913Z,5596
2016-09-18T09:48:22.815Z,5224
2016-09-18T09:49:21.885Z,4660
2016-09-18T09:50:22.854Z,4936
2016-09-18T09:51:22.871Z,4932
2016-09-18T09:52:22.897Z,4924
2016-09-18T09:53:22.324Z,4904
2016-09-18T09:54:22.944Z,4888
2016-09-18T09:55:22.983Z,4340
2016-09-18T09:56:22.776Z,4412
2016-09-18T09:57:23.008Z,5020
2016-09-18T09:58:23.057Z,5084
2016-09-18T09:59:22.764Z,5208
2016-09-18T10:00:23.153Z,5324
2016-09-18T10:01:23.113Z,5348
2016-09-18T10:02:23.146Z,5396
2016-09-18T10:03:22.842Z,5840
2016-09-18T10:04:23.174Z,5284
2016-09-18T10:05:23.195Z,5304
2016-09-18T10:06:22.922Z,4912
2016-09-18T10:07:23.506Z,5548
2016-09-18T10:08:23.296Z,6304
2016-09-18T10:09:23.315Z,6732
2016-09-18T10:10:23.073Z,6688
2016-09-18T10:11:23.449Z,7296
2016-09-18T10:12:23.387Z,7852
2016-09-18T10:13:23.133Z,8528
2016-09-18T10:14:23.483Z,9256
2016-09-18T10:15:23.136Z,9904
2016-09-18T10:16:23.182Z,9780
2016-09-18T10:17:23.204Z,8976
2016-09-18T10:18:23.519Z,6748
2016-09-18T10:19:22.957Z,6156
2016-09-18T10:20:23.263Z,6436
2016-09-18T10:21:23.720Z,6960
2016-09-18T10:22:23.202Z,7812
2016-09-18T10:23:23.991Z,7240
2016-09-18T10:24:23.217Z,6936
2016-09-18T10:25:23.516Z,6016
2016-09-18T10:26:23.129Z,6596
2016-09-18T10:27:23.764Z,6380
2016-09-18T10:28:23.992Z,6072
2016-09-18T10:29:23.926Z,6012
2016-09-18T10:30:23.934Z,6728
2016-09-18T10:31:23.247Z,7352
2016-09-18T10:32:23.974Z,7360
2016-09-18T10:33:23.926Z,6984
2016-09-18T10:34:23.957Z,6648
2016-09-18T10:35:24.028Z,6048
2016-09-18T10:36:23.997Z,6196
2016-09-18T10:37:24.012Z,6300
2016-09-18T10:38:24.046Z,6212
2016-09-18T10:39:24.061Z,6320
2016-09-18T10:40:24.288Z,6464
2016-09-18T10:41:24.100Z,6472
2016-09-18T10:42:24.143Z,6408
2016-09-18T10:43:24.174Z,5952
2016-09-18T10:44:24.026Z,5952
2016-09-18T10:45:23.914Z,6200
2016-09-18T10:46:24.227Z,6200
2016-09-18T10:47:24.278Z,7264
2016-09-18T10:48:24.010Z,7240
2016-09-18T10:49:24.326Z,8404
2016-09-18T10:50:24.019Z,10536
2016-09-18T10:51:24.645Z,12756
2016-09-18T10:52:24.091Z,12604
2016-09-18T10:53:24.103Z,12668
2016-09-18T10:54:24.568Z,12416
2016-09-18T10:55:24.516Z,12372
2016-09-18T10:56:24.515Z,11644
2016-09-18T10:57:24.507Z,10592
2016-09-18T10:58:24.646Z,9168
2016-09-18T10:59:24.623Z,7452
2016-09-18T11:00:24.275Z,6636
2016-09-18T11:01:24.304Z,6992
2016-09-18T11:02:24.355Z,7176
2016-09-18T11:03:24.656Z,6512
2016-09-18T11:04:24.514Z,5716
2016-09-18T11:05:24.801Z,5332
2016-09-18T11:06:24.774Z,4916
2016-09-18T11:07:24.875Z,5068
2016-09-18T11:08:24.512Z,5336
2016-09-18T11:09:24.837Z,5896
2016-09-18T11:10:24.837Z,7384
2016-09-18T11:11:24.866Z,9064
2016-09-18T11:12:24.909Z,11388
2016-09-18T11:13:24.657Z,13176
2016-09-18T11:14:24.665Z,13428
2016-09-18T11:15:24.740Z,13056
2016-09-18T11:16:24.677Z,12588
2016-09-18T11:17:25.048Z,12224
2016-09-18T11:18:25.156Z,12028
2016-09-18T11:19:24.774Z,11680
2016-09-18T11:20:25.105Z,11492
2016-09-18T11:21:25.142Z,10796
2016-09-18T11:22:25.168Z,10876
2016-09-18T11:23:25.201Z,11344
2016-09-18T11:24:25.212Z,12044
2016-09-18T11:25:25.242Z,11900
2016-09-18T11:26:24.983Z,10932
2016-09-18T11:27:25.315Z,11132
2016-09-18T11:28:25.004Z,11556
2016-09-18T11:29:25.083Z,11464
2016-09-18T11:30:25.204Z,11400
2016-09-18T11:31:25.393Z,11264
2016-09-18T11:32:25.104Z,10308
2016-09-18T11:33:25.141Z,9620
2016-09-18T11:34:25.475Z,9376
2016-09-18T11:35:25.205Z,9120
2016-09-18T11:36:25.519Z,7944
2016-09-18T11:37:25.634Z,7104
2016-09-18T11:38:25.273Z,7592
2016-09-18T11:39:24.997Z,9732
2016-09-18T11:40:25.727Z,12000
2016-09-18T11:41:25.369Z,14276
2016-09-18T11:42:25.701Z,15872
2016-09-18T11:43:25.717Z,15360
2016-09-18T11:44:25.746Z,14644
2016-09-18T11:45:25.445Z,13416
2016-09-18T11:46:25.474Z,11584
2016-09-18T11:47:25.823Z,11636
2016-09-18T11:48:25.906Z,14036
2016-09-18T11:49:25.565Z,13620
2016-09-18T11:50:25.987Z,12596
2016-09-18T11:51:25.958Z,11644
2016-09-18T11:52:25.990Z,11340
2016-09-18T11:53:26.057Z,11136
2016-09-18T11:54:26.010Z,10464
2016-09-18T11:55:26.042Z,10428
2016-09-18T11:56:26.043Z,10768
2016-09-18T11:57:26.082Z,11336
2016-09-18T11:58:26.107Z,11756
2016-09-18T11:59:26.146Z,11396
2016-09-18T12:00:25.840Z,10712
2016-09-18T12:01:26.287Z,10096
2016-09-18T12:02:26.225Z,9500
2016-09-18T12:03:25.944Z,9656
2016-09-18T12:04:26.011Z,9716
2016-09-18T12:05:26.287Z,10172
2016-09-18T12:06:26.014Z,10744
2016-09-18T12:07:26.358Z,11216
2016-09-18T12:08:26.405Z,11388
2016-09-18T12:09:26.399Z,11136
2016-09-18T12:10:25.824Z,10264
2016-09-18T12:11:26.142Z,9752
2016-09-18T12:12:26.734Z,10132
2016-09-18T12:13:26.217Z,10812
2016-09-18T12:14:26.495Z,10496
2016-09-18T12:15:26.434Z,10224
2016-09-18T12:16:25.968Z,10036
2016-09-18T12:17:26.323Z,9164
2016-09-18T12:18:26.669Z,8268
2016-09-18T12:19:26.368Z,7260
2016-09-18T12:20:26.768Z,6508
2016-09-18T12:21:26.457Z,6936
2016-09-18T12:22:26.799Z,7636
2016-09-18T12:23:26.777Z,8808
2016-09-18T12:24:26.799Z,9812
2016-09-18T12:25:26.538Z,11740
2016-09-18T12:26:27.070Z,13676
2016-09-18T12:27:26.548Z,13816
2016-09-18T12:28:26.906Z,13112
2016-09-18T12:29:26.947Z,12740
2016-09-18T12:30:26.956Z,12788
2016-09-18T12:31:27.076Z,12256
2016-09-18T12:32:26.959Z,11268
2016-09-18T12:33:26.744Z,10476
2016-09-18T12:34:27.121Z,9772
2016-09-18T12:35:26.806Z,9456
2016-09-18T12:36:27.129Z,9608
2016-09-18T12:37:27.110Z,9268
2016-09-18T12:38:26.892Z,8904
2016-09-18T12:39:26.552Z,8956
2016-09-18T12:40:26.654Z,8716
2016-09-18T12:41:27.334Z,8668
2016-09-18T12:42:27.406Z,8752
2016-09-18T12:43:27.448Z,8884
2016-09-18T12:44:27.027Z,9184
2016-09-18T12:45:27.365Z,9408
2016-09-18T12:46:27.398Z,8928
2016-09-18T12:47:27.425Z,8132
2016-09-18T12:48:27.443Z,7860
2016-09-18T12:49:27.455Z,7768
2016-09-18T12:50:27.516Z,8316
2016-09-18T12:51:27.511Z,9652
2016-09-18T12:52:27.255Z,10676
2016-09-18T12:53:27.575Z,10832
2016-09-18T12:54:27.644Z,10572
2016-09-18T12:55:27.610Z,11696
2016-09-18T12:56:27.635Z,12904
2016-09-18T12:57:27.363Z,13208
2016-09-18T12:58:27.504Z,12908
2016-09-18T12:59:27.506Z,12344
2016-09-18T13:00:27.737Z,12240
2016-09-18T13:01:27.789Z,12700
2016-09-18T13:02:27.531Z,12924
2016-09-18T13:03:27.610Z,12976
2016-09-18T13:04:27.891Z,13272
2016-09-18T13:05:27.874Z,12924
2016-09-18T13:06:27.622Z,12096
2016-09-18T13:07:27.976Z,11760
2016-09-18T13:08:28.014Z,11220
2016-09-18T13:09:27.993Z,10816
2016-09-18T13:10:27.445Z,10924
2016-09-18T13:11:28.046Z,10900
2016-09-18T13:12:28.063Z,10864
2016-09-18T13:13:28.102Z,11124
2016-09-18T13:14:28.109Z,11236
2016-09-18T13:15:27.843Z,11192
2016-09-18T13:16:28.160Z,11156
2016-09-18T13:17:28.212Z,11216
2016-09-18T13:18:27.965Z,11244
2016-09-18T13:19:28.284Z,11164
2016-09-18T13:20:28.279Z,10884
2016-09-18T13:21:28.299Z,10348
2016-09-18T13:22:28.012Z,10928
2016-09-18T13:23:28.401Z,11176
2016-09-18T13:24:28.380Z,11212
2016-09-18T13:25:28.464Z,11804
2016-09-18T13:26:28.512Z,11848
2016-09-18T13:27:28.485Z,11504
2016-09-18T13:28:28.539Z,10972
2016-09-18T13:29:28.533Z,10288
2016-09-18T13:30:28.224Z,10104
2016-09-18T13:31:28.580Z,10712
2016-09-18T13:32:28.604Z,10392
2016-09-18T13:33:28.314Z,10732
2016-09-18T13:34:28.350Z,10452
2016-09-18T13:35:28.357Z,10460
2016-09-18T13:36:28.698Z,10480
2016-09-18T13:37:28.732Z,10240
2016-09-18T13:38:28.789Z,10456
2016-09-18T13:39:28.478Z,9956
2016-09-18T13:40:28.521Z,9648
2016-09-18T13:41:28.865Z,9292